sensor_id;sensor_type;location;lat;lon;timestamp;P1;durP1;ratioP1;P2;durP2;ratioP2
11328;SDS011;5719;42.714;23.732;2022-12-20T00:00:54;16.00;;;8.60;;
11328;SDS011;5719;42.714;23.732;2022-12-20T00:03:21;19.70;;;8.73;;
11328;SDS011;5719;42.714;23.732;2022-12-20T00:05:48;18.50;;;8.50;;
11328;SDS011;5719;42.714;23.732;2022-12-20T00:08:15;17.77;;;8.52;;
11328;SDS011;5719;42.714;23.732;2022-12-20T00:10:43;21.17;;;10.18;;
11328;SDS011;5719;42.714;23.732;2022-12-20T00:13:11;17.73;;;9.20;;
11328;SDS011;5719;42.714;23.732;2022-12-20T00:15:38;19.02;;;9.10;;
11328;SDS011;5719;42.714;23.732;2022-12-20T00:18:06;16.85;;;8.75;;
11328;SDS011;5719;42.714;23.732;2022-12-20T00:20:33;16.20;;;8.80;;
11328;SDS011;5719;42.714;23.732;2022-12-20T00:23:00;18.40;;;9.07;;
11328;SDS011;5719;42.714;23.732;2022-12-20T00:25:27;17.27;;;9.20;;
11328;SDS011;5719;42.714;23.732;2022-12-20T00:27:54;20.75;;;9.30;;
11328;SDS011;5719;42.714;23.732;2022-12-20T00:30:21;17.17;;;8.95;;
11328;SDS011;5719;42.714;23.732;2022-12-20T00:32:48;24.92;;;9.85;;
11328;SDS011;5719;42.714;23.732;2022-12-20T00:35:17;18.15;;;9.35;;
11328;SDS011;5719;42.714;23.732;2022-12-20T00:37:44;19.98;;;9.60;;
11328;SDS011;5719;42.714;23.732;2022-12-20T00:40:11;21.88;;;10.07;;
11328;SDS011;5719;42.714;23.732;2022-12-20T00:42:38;19.98;;;9.45;;
11328;SDS011;5719;42.714;23.732;2022-12-20T00:45:05;17.55;;;8.75;;
11328;SDS011;5719;42.714;23.732;2022-12-20T00:47:32;18.52;;;9.60;;
11328;SDS011;5719;42.714;23.732;2022-12-20T00:49:59;17.10;;;9.48;;
11328;SDS011;5719;42.714;23.732;2022-12-20T00:52:27;18.55;;;9.25;;
11328;SDS011;5719;42.714;23.732;2022-12-20T00:54:54;18.85;;;9.63;;
11328;SDS011;5719;42.714;23.732;2022-12-20T00:57:21;20.08;;;9.63;;
11328;SDS011;5719;42.714;23.732;2022-12-20T00:59:48;18.27;;;9.20;;
11328;SDS011;5719;42.714;23.732;2022-12-20T01:02:15;20.52;;;9.70;;
11328;SDS011;5719;42.714;23.732;2022-12-20T01:04:42;21.55;;;10.82;;
11328;SDS011;5719;42.714;23.732;2022-12-20T01:07:09;20.02;;;9.75;;
11328;SDS011;5719;42.714;23.732;2022-12-20T01:09:37;21.52;;;10.90;;
11328;SDS011;5719;42.714;23.732;2022-12-20T01:12:04;20.08;;;9.70;;
11328;SDS011;5719;42.714;23.732;2022-12-20T01:14:32;25.60;;;10.88;;
11328;SDS011;5719;42.714;23.732;2022-12-20T01:16:59;21.30;;;10.23;;
11328;SDS011;5719;42.714;23.732;2022-12-20T01:19:26;18.88;;;9.75;;
11328;SDS011;5719;42.714;23.732;2022-12-20T01:21:52;19.23;;;9.73;;
11328;SDS011;5719;42.714;23.732;2022-12-20T01:24:19;17.23;;;9.65;;
11328;SDS011;5719;42.714;23.732;2022-12-20T01:26:48;17.50;;;8.48;;
11328;SDS011;5719;42.714;23.732;2022-12-20T01:29:15;16.45;;;8.82;;
11328;SDS011;5719;42.714;23.732;2022-12-20T01:31:42;16.27;;;8.90;;
11328;SDS011;5719;42.714;23.732;2022-12-20T01:34:10;15.68;;;8.45;;
11328;SDS011;5719;42.714;23.732;2022-12-20T01:36:37;14.57;;;8.50;;
11328;SDS011;5719;42.714;23.732;2022-12-20T01:39:05;16.20;;;8.05;;
11328;SDS011;5719;42.714;23.732;2022-12-20T01:41:34;16.88;;;8.63;;
11328;SDS011;5719;42.714;23.732;2022-12-20T01:44:47;18.17;;;8.60;;
11328;SDS011;5719;42.714;23.732;2022-12-20T01:47:09;17.08;;;8.55;;
11328;SDS011;5719;42.714;23.732;2022-12-20T01:49:39;18.27;;;8.75;;
11328;SDS011;5719;42.714;23.732;2022-12-20T01:52:11;14.52;;;8.02;;
11328;SDS011;5719;42.714;23.732;2022-12-20T01:54:41;17.45;;;8.68;;
11328;SDS011;5719;42.714;23.732;2022-12-20T01:57:11;16.92;;;8.50;;
11328;SDS011;5719;42.714;23.732;2022-12-20T01:59:45;15.60;;;8.63;;
11328;SDS011;5719;42.714;23.732;2022-12-20T02:02:15;18.92;;;8.20;;
11328;SDS011;5719;42.714;23.732;2022-12-20T02:04:43;15.68;;;8.70;;
11328;SDS011;5719;42.714;23.732;2022-12-20T02:07:10;18.05;;;8.30;;
11328;SDS011;5719;42.714;23.732;2022-12-20T02:09:42;19.90;;;8.82;;
11328;SDS011;5719;42.714;23.732;2022-12-20T02:12:10;18.25;;;8.02;;
11328;SDS011;5719;42.714;23.732;2022-12-20T02:14:53;16.65;;;8.02;;
11328;SDS011;5719;42.714;23.732;2022-12-20T02:17:31;15.55;;;8.32;;
11328;SDS011;5719;42.714;23.732;2022-12-20T02:20:25;20.52;;;7.57;;
11328;SDS011;5719;42.714;23.732;2022-12-20T02:23:15;14.82;;;7.57;;
11328;SDS011;5719;42.714;23.732;2022-12-20T02:26:03;18.52;;;8.52;;
11328;SDS011;5719;42.714;23.732;2022-12-20T02:28:53;15.73;;;8.10;;
11328;SDS011;5719;42.714;23.732;2022-12-20T02:31:33;13.18;;;7.78;;
11328;SDS011;5719;42.714;23.732;2022-12-20T02:34:06;14.75;;;7.55;;
11328;SDS011;5719;42.714;23.732;2022-12-20T02:36:36;20.05;;;8.50;;
11328;SDS011;5719;42.714;23.732;2022-12-20T02:39:03;14.60;;;7.53;;
11328;SDS011;5719;42.714;23.732;2022-12-20T02:41:31;14.32;;;7.68;;
11328;SDS011;5719;42.714;23.732;2022-12-20T02:44:03;16.85;;;8.30;;
11328;SDS011;5719;42.714;23.732;2022-12-20T02:46:51;15.02;;;7.97;;
11328;SDS011;5719;42.714;23.732;2022-12-20T02:49:22;20.02;;;8.10;;
11328;SDS011;5719;42.714;23.732;2022-12-20T02:51:54;17.50;;;7.30;;
11328;SDS011;5719;42.714;23.732;2022-12-20T02:54:22;15.07;;;8.27;;
11328;SDS011;5719;42.714;23.732;2022-12-20T02:56:51;16.75;;;8.27;;
11328;SDS011;5719;42.714;23.732;2022-12-20T02:59:23;14.50;;;7.18;;
11328;SDS011;5719;42.714;23.732;2022-12-20T03:01:55;14.63;;;7.57;;
11328;SDS011;5719;42.714;23.732;2022-12-20T03:04:23;14.82;;;8.40;;
11328;SDS011;5719;42.714;23.732;2022-12-20T03:06:58;12.40;;;7.30;;
11328;SDS011;5719;42.714;23.732;2022-12-20T03:09:26;17.13;;;7.93;;
11328;SDS011;5719;42.714;23.732;2022-12-20T03:11:55;14.98;;;7.88;;
11328;SDS011;5719;42.714;23.732;2022-12-20T03:14:22;16.83;;;8.15;;
11328;SDS011;5719;42.714;23.732;2022-12-20T03:16:50;15.55;;;7.60;;
11328;SDS011;5719;42.714;23.732;2022-12-20T03:19:19;15.50;;;7.80;;
11328;SDS011;5719;42.714;23.732;2022-12-20T03:21:46;15.43;;;7.63;;
11328;SDS011;5719;42.714;23.732;2022-12-20T03:24:13;12.07;;;7.28;;
11328;SDS011;5719;42.714;23.732;2022-12-20T03:26:40;19.80;;;8.30;;
11328;SDS011;5719;42.714;23.732;2022-12-20T03:29:07;12.40;;;7.25;;
11328;SDS011;5719;42.714;23.732;2022-12-20T03:31:34;12.60;;;6.97;;
11328;SDS011;5719;42.714;23.732;2022-12-20T03:34:02;14.25;;;7.70;;
11328;SDS011;5719;42.714;23.732;2022-12-20T03:36:31;17.20;;;8.35;;
11328;SDS011;5719;42.714;23.732;2022-12-20T03:38:58;13.32;;;7.50;;
11328;SDS011;5719;42.714;23.732;2022-12-20T03:41:26;16.30;;;7.47;;
11328;SDS011;5719;42.714;23.732;2022-12-20T03:43:53;18.17;;;8.07;;
11328;SDS011;5719;42.714;23.732;2022-12-20T03:46:20;16.35;;;8.23;;
11328;SDS011;5719;42.714;23.732;2022-12-20T03:48:47;17.25;;;7.68;;
11328;SDS011;5719;42.714;23.732;2022-12-20T03:51:14;15.98;;;7.78;;
11328;SDS011;5719;42.714;23.732;2022-12-20T03:53:42;16.60;;;7.53;;
11328;SDS011;5719;42.714;23.732;2022-12-20T03:56:09;13.95;;;8.07;;
11328;SDS011;5719;42.714;23.732;2022-12-20T03:58:35;13.48;;;7.47;;
11328;SDS011;5719;42.714;23.732;2022-12-20T04:01:14;16.58;;;7.57;;
11328;SDS011;5719;42.714;23.732;2022-12-20T04:03:42;15.85;;;7.70;;
11328;SDS011;5719;42.714;23.732;2022-12-20T04:06:09;13.73;;;7.75;;
11328;SDS011;5719;42.714;23.732;2022-12-20T04:08:36;14.05;;;7.93;;
11328;SDS011;5719;42.714;23.732;2022-12-20T04:11:04;15.40;;;7.60;;
11328;SDS011;5719;42.714;23.732;2022-12-20T04:13:44;15.32;;;8.25;;
11328;SDS011;5719;42.714;23.732;2022-12-20T04:16:12;16.58;;;8.52;;
11328;SDS011;5719;42.714;23.732;2022-12-20T04:18:40;13.32;;;7.25;;
11328;SDS011;5719;42.714;23.732;2022-12-20T04:21:10;15.05;;;7.90;;
11328;SDS011;5719;42.714;23.732;2022-12-20T04:23:38;15.98;;;7.57;;
11328;SDS011;5719;42.714;23.732;2022-12-20T04:26:08;14.10;;;7.55;;
11328;SDS011;5719;42.714;23.732;2022-12-20T04:28:37;15.73;;;8.20;;
11328;SDS011;5719;42.714;23.732;2022-12-20T04:31:04;15.48;;;7.93;;
11328;SDS011;5719;42.714;23.732;2022-12-20T04:33:31;12.80;;;6.95;;
11328;SDS011;5719;42.714;23.732;2022-12-20T04:35:58;16.45;;;7.97;;
11328;SDS011;5719;42.714;23.732;2022-12-20T04:38:25;14.52;;;8.05;;
11328;SDS011;5719;42.714;23.732;2022-12-20T04:40:52;19.60;;;8.25;;
11328;SDS011;5719;42.714;23.732;2022-12-20T04:43:22;16.77;;;8.10;;
11328;SDS011;5719;42.714;23.732;2022-12-20T04:45:49;15.35;;;7.80;;
11328;SDS011;5719;42.714;23.732;2022-12-20T04:48:17;15.90;;;7.93;;
11328;SDS011;5719;42.714;23.732;2022-12-20T04:50:46;17.45;;;8.07;;
11328;SDS011;5719;42.714;23.732;2022-12-20T04:53:13;16.05;;;8.13;;
11328;SDS011;5719;42.714;23.732;2022-12-20T04:55:58;16.23;;;8.45;;
11328;SDS011;5719;42.714;23.732;2022-12-20T04:58:26;15.50;;;9.18;;
11328;SDS011;5719;42.714;23.732;2022-12-20T05:00:54;18.08;;;7.90;;
11328;SDS011;5719;42.714;23.732;2022-12-20T05:03:22;16.05;;;8.05;;
11328;SDS011;5719;42.714;23.732;2022-12-20T05:05:50;16.48;;;8.27;;
11328;SDS011;5719;42.714;23.732;2022-12-20T05:08:17;15.55;;;8.38;;
11328;SDS011;5719;42.714;23.732;2022-12-20T05:10:44;19.13;;;9.15;;
11328;SDS011;5719;42.714;23.732;2022-12-20T05:13:11;16.52;;;8.57;;
11328;SDS011;5719;42.714;23.732;2022-12-20T05:15:39;14.98;;;8.10;;
11328;SDS011;5719;42.714;23.732;2022-12-20T05:18:07;17.15;;;8.60;;
11328;SDS011;5719;42.714;23.732;2022-12-20T05:20:34;18.35;;;9.25;;
11328;SDS011;5719;42.714;23.732;2022-12-20T05:23:01;15.52;;;8.38;;
11328;SDS011;5719;42.714;23.732;2022-12-20T05:25:47;21.05;;;8.90;;
11328;SDS011;5719;42.714;23.732;2022-12-20T05:28:29;21.85;;;10.15;;
11328;SDS011;5719;42.714;23.732;2022-12-20T05:30:58;19.33;;;9.38;;
11328;SDS011;5719;42.714;23.732;2022-12-20T05:33:25;15.52;;;8.48;;
11328;SDS011;5719;42.714;23.732;2022-12-20T05:35:52;18.95;;;8.73;;
11328;SDS011;5719;42.714;23.732;2022-12-20T05:38:20;20.00;;;9.15;;
11328;SDS011;5719;42.714;23.732;2022-12-20T05:40:47;21.05;;;9.13;;
11328;SDS011;5719;42.714;23.732;2022-12-20T05:43:15;19.50;;;10.43;;
11328;SDS011;5719;42.714;23.732;2022-12-20T05:45:44;34.92;;;14.80;;
11328;SDS011;5719;42.714;23.732;2022-12-20T05:48:13;34.83;;;15.88;;
11328;SDS011;5719;42.714;23.732;2022-12-20T05:50:40;35.10;;;14.25;;
11328;SDS011;5719;42.714;23.732;2022-12-20T05:53:10;23.23;;;12.27;;
11328;SDS011;5719;42.714;23.732;2022-12-20T05:55:37;25.77;;;12.00;;
11328;SDS011;5719;42.714;23.732;2022-12-20T05:58:05;26.80;;;12.43;;
11328;SDS011;5719;42.714;23.732;2022-12-20T06:00:32;26.75;;;12.82;;
11328;SDS011;5719;42.714;23.732;2022-12-20T06:02:59;18.95;;;9.05;;
11328;SDS011;5719;42.714;23.732;2022-12-20T06:05:27;17.52;;;9.20;;
11328;SDS011;5719;42.714;23.732;2022-12-20T06:07:54;16.98;;;8.35;;
11328;SDS011;5719;42.714;23.732;2022-12-20T06:10:21;22.08;;;11.30;;
11328;SDS011;5719;42.714;23.732;2022-12-20T06:12:48;15.82;;;9.13;;
11328;SDS011;5719;42.714;23.732;2022-12-20T06:15:15;24.02;;;10.50;;
11328;SDS011;5719;42.714;23.732;2022-12-20T06:17:42;22.60;;;10.23;;
11328;SDS011;5719;42.714;23.732;2022-12-20T06:20:10;22.80;;;11.40;;
11328;SDS011;5719;42.714;23.732;2022-12-20T06:22:38;26.35;;;13.00;;
11328;SDS011;5719;42.714;23.732;2022-12-20T06:25:06;26.35;;;12.48;;
11328;SDS011;5719;42.714;23.732;2022-12-20T06:27:33;26.17;;;12.43;;
11328;SDS011;5719;42.714;23.732;2022-12-20T06:30:00;30.17;;;14.60;;
11328;SDS011;5719;42.714;23.732;2022-12-20T06:32:27;28.42;;;13.32;;
11328;SDS011;5719;42.714;23.732;2022-12-20T06:34:54;30.88;;;15.27;;
11328;SDS011;5719;42.714;23.732;2022-12-20T06:37:21;34.85;;;15.75;;
11328;SDS011;5719;42.714;23.732;2022-12-20T06:39:49;31.30;;;14.95;;
11328;SDS011;5719;42.714;23.732;2022-12-20T06:42:16;29.63;;;14.48;;
11328;SDS011;5719;42.714;23.732;2022-12-20T06:44:43;23.20;;;12.18;;
11328;SDS011;5719;42.714;23.732;2022-12-20T06:47:11;26.67;;;13.63;;
11328;SDS011;5719;42.714;23.732;2022-12-20T06:49:38;30.25;;;14.80;;
11328;SDS011;5719;42.714;23.732;2022-12-20T06:52:04;20.35;;;10.32;;
11328;SDS011;5719;42.714;23.732;2022-12-20T06:54:31;28.75;;;13.07;;
11328;SDS011;5719;42.714;23.732;2022-12-20T06:56:59;27.02;;;12.43;;
11328;SDS011;5719;42.714;23.732;2022-12-20T06:59:26;27.85;;;13.57;;
11328;SDS011;5719;42.714;23.732;2022-12-20T07:01:53;22.83;;;12.27;;
11328;SDS011;5719;42.714;23.732;2022-12-20T07:04:20;24.77;;;12.82;;
11328;SDS011;5719;42.714;23.732;2022-12-20T07:06:47;15.23;;;8.70;;
11328;SDS011;5719;42.714;23.732;2022-12-20T07:09:15;15.52;;;8.60;;
11328;SDS011;5719;42.714;23.732;2022-12-20T07:11:42;11.70;;;7.43;;
11328;SDS011;5719;42.714;23.732;2022-12-20T07:14:10;14.70;;;7.72;;
11328;SDS011;5719;42.714;23.732;2022-12-20T07:16:37;12.88;;;7.75;;
11328;SDS011;5719;42.714;23.732;2022-12-20T07:19:05;15.57;;;7.78;;
11328;SDS011;5719;42.714;23.732;2022-12-20T07:21:32;13.05;;;7.10;;
11328;SDS011;5719;42.714;23.732;2022-12-20T07:23:59;12.60;;;7.35;;
11328;SDS011;5719;42.714;23.732;2022-12-20T07:26:26;11.75;;;7.53;;
11328;SDS011;5719;42.714;23.732;2022-12-20T07:28:54;13.25;;;7.72;;
11328;SDS011;5719;42.714;23.732;2022-12-20T07:31:22;13.82;;;7.30;;
11328;SDS011;5719;42.714;23.732;2022-12-20T07:33:50;13.32;;;7.53;;
11328;SDS011;5719;42.714;23.732;2022-12-20T07:36:17;13.40;;;7.30;;
11328;SDS011;5719;42.714;23.732;2022-12-20T07:38:44;13.90;;;8.00;;
11328;SDS011;5719;42.714;23.732;2022-12-20T07:41:11;12.35;;;7.03;;
11328;SDS011;5719;42.714;23.732;2022-12-20T07:43:39;13.20;;;7.28;;
11328;SDS011;5719;42.714;23.732;2022-12-20T07:46:06;11.70;;;7.30;;
11328;SDS011;5719;42.714;23.732;2022-12-20T07:48:37;13.07;;;6.93;;
11328;SDS011;5719;42.714;23.732;2022-12-20T07:51:05;12.63;;;7.88;;
11328;SDS011;5719;42.714;23.732;2022-12-20T07:53:34;11.70;;;6.85;;
11328;SDS011;5719;42.714;23.732;2022-12-20T07:56:05;13.85;;;7.28;;
11328;SDS011;5719;42.714;23.732;2022-12-20T07:58:34;13.43;;;7.47;;
11328;SDS011;5719;42.714;23.732;2022-12-20T08:01:05;13.20;;;7.72;;
11328;SDS011;5719;42.714;23.732;2022-12-20T08:03:34;13.40;;;7.80;;
11328;SDS011;5719;42.714;23.732;2022-12-20T08:06:07;11.23;;;7.18;;
11328;SDS011;5719;42.714;23.732;2022-12-20T08:08:35;12.82;;;7.78;;
11328;SDS011;5719;42.714;23.732;2022-12-20T08:11:06;15.00;;;8.10;;
11328;SDS011;5719;42.714;23.732;2022-12-20T08:13:36;13.23;;;7.88;;
11328;SDS011;5719;42.714;23.732;2022-12-20T08:16:03;12.50;;;7.93;;
11328;SDS011;5719;42.714;23.732;2022-12-20T08:18:30;11.40;;;6.50;;
11328;SDS011;5719;42.714;23.732;2022-12-20T08:20:59;13.50;;;7.07;;
11328;SDS011;5719;42.714;23.732;2022-12-20T08:23:26;12.05;;;6.55;;
11328;SDS011;5719;42.714;23.732;2022-12-20T08:25:53;12.80;;;7.07;;
11328;SDS011;5719;42.714;23.732;2022-12-20T08:28:20;10.07;;;6.55;;
11328;SDS011;5719;42.714;23.732;2022-12-20T08:30:48;10.68;;;6.85;;
11328;SDS011;5719;42.714;23.732;2022-12-20T08:33:15;11.15;;;7.10;;
11328;SDS011;5719;42.714;23.732;2022-12-20T08:35:41;14.00;;;6.85;;
11328;SDS011;5719;42.714;23.732;2022-12-20T08:38:10;9.52;;;6.53;;
11328;SDS011;5719;42.714;23.732;2022-12-20T08:40:37;10.80;;;6.68;;
11328;SDS011;5719;42.714;23.732;2022-12-20T08:43:04;9.25;;;6.18;;
11328;SDS011;5719;42.714;23.732;2022-12-20T08:45:31;8.95;;;6.20;;
11328;SDS011;5719;42.714;23.732;2022-12-20T08:47:58;10.20;;;6.38;;
11328;SDS011;5719;42.714;23.732;2022-12-20T08:50:25;11.68;;;6.65;;
11328;SDS011;5719;42.714;23.732;2022-12-20T08:52:52;9.80;;;5.57;;
11328;SDS011;5719;42.714;23.732;2022-12-20T08:55:20;10.32;;;6.15;;
11328;SDS011;5719;42.714;23.732;2022-12-20T08:57:47;9.68;;;6.03;;
11328;SDS011;5719;42.714;23.732;2022-12-20T09:00:14;10.18;;;5.72;;
11328;SDS011;5719;42.714;23.732;2022-12-20T09:02:41;8.23;;;5.03;;
11328;SDS011;5719;42.714;23.732;2022-12-20T09:05:08;8.95;;;5.53;;
11328;SDS011;5719;42.714;23.732;2022-12-20T09:07:35;11.73;;;5.75;;
11328;SDS011;5719;42.714;23.732;2022-12-20T09:10:03;8.45;;;5.53;;
11328;SDS011;5719;42.714;23.732;2022-12-20T09:12:32;8.45;;;5.40;;
11328;SDS011;5719;42.714;23.732;2022-12-20T09:15:02;7.72;;;5.28;;
11328;SDS011;5719;42.714;23.732;2022-12-20T09:17:29;7.60;;;5.22;;
11328;SDS011;5719;42.714;23.732;2022-12-20T09:19:56;7.80;;;5.47;;
11328;SDS011;5719;42.714;23.732;2022-12-20T09:22:22;8.55;;;5.63;;
11328;SDS011;5719;42.714;23.732;2022-12-20T09:24:49;7.95;;;5.18;;
11328;SDS011;5719;42.714;23.732;2022-12-20T09:27:16;8.38;;;4.80;;
11328;SDS011;5719;42.714;23.732;2022-12-20T09:29:44;8.27;;;4.88;;
11328;SDS011;5719;42.714;23.732;2022-12-20T09:32:11;8.18;;;5.32;;
11328;SDS011;5719;42.714;23.732;2022-12-20T09:34:38;7.75;;;4.88;;
11328;SDS011;5719;42.714;23.732;2022-12-20T09:37:05;6.72;;;5.05;;
11328;SDS011;5719;42.714;23.732;2022-12-20T09:39:32;6.50;;;4.90;;
11328;SDS011;5719;42.714;23.732;2022-12-20T09:41:59;6.68;;;4.68;;
11328;SDS011;5719;42.714;23.732;2022-12-20T09:44:27;7.35;;;4.38;;
11328;SDS011;5719;42.714;23.732;2022-12-20T09:46:58;9.55;;;4.80;;
11328;SDS011;5719;42.714;23.732;2022-12-20T09:49:30;4.70;;;3.95;;
11328;SDS011;5719;42.714;23.732;2022-12-20T09:52:17;4.85;;;3.63;;
11328;SDS011;5719;42.714;23.732;2022-12-20T09:54:56;5.65;;;3.95;;
11328;SDS011;5719;42.714;23.732;2022-12-20T09:57:37;7.40;;;4.07;;
11328;SDS011;5719;42.714;23.732;2022-12-20T10:00:13;5.88;;;4.32;;
11328;SDS011;5719;42.714;23.732;2022-12-20T10:02:43;7.35;;;4.30;;
11328;SDS011;5719;42.714;23.732;2022-12-20T10:05:12;4.43;;;3.97;;
11328;SDS011;5719;42.714;23.732;2022-12-20T10:07:42;9.02;;;4.10;;
11328;SDS011;5719;42.714;23.732;2022-12-20T10:10:23;6.80;;;4.22;;
11328;SDS011;5719;42.714;23.732;2022-12-20T10:13:10;9.55;;;4.00;;
11328;SDS011;5719;42.714;23.732;2022-12-20T10:15:49;5.15;;;3.35;;
11328;SDS011;5719;42.714;23.732;2022-12-20T10:18:23;4.97;;;3.50;;
11328;SDS011;5719;42.714;23.732;2022-12-20T10:21:02;4.97;;;3.65;;
11328;SDS011;5719;42.714;23.732;2022-12-20T10:23:36;4.85;;;3.50;;
11328;SDS011;5719;42.714;23.732;2022-12-20T10:26:08;3.97;;;3.25;;
11328;SDS011;5719;42.714;23.732;2022-12-20T10:28:36;3.42;;;3.03;;
11328;SDS011;5719;42.714;23.732;2022-12-20T10:31:04;4.07;;;3.38;;
11328;SDS011;5719;42.714;23.732;2022-12-20T10:33:34;3.65;;;3.13;;
11328;SDS011;5719;42.714;23.732;2022-12-20T10:36:16;4.03;;;3.08;;
11328;SDS011;5719;42.714;23.732;2022-12-20T10:38:46;5.18;;;3.20;;
11328;SDS011;5719;42.714;23.732;2022-12-20T10:41:15;3.25;;;2.90;;
11328;SDS011;5719;42.714;23.732;2022-12-20T10:43:45;5.88;;;3.30;;
11328;SDS011;5719;42.714;23.732;2022-12-20T10:46:15;3.70;;;3.20;;
11328;SDS011;5719;42.714;23.732;2022-12-20T10:48:44;4.15;;;3.10;;
11328;SDS011;5719;42.714;23.732;2022-12-20T10:51:13;4.43;;;3.47;;
11328;SDS011;5719;42.714;23.732;2022-12-20T10:53:49;4.13;;;3.05;;
11328;SDS011;5719;42.714;23.732;2022-12-20T10:56:18;2.50;;;2.30;;
11328;SDS011;5719;42.714;23.732;2022-12-20T10:58:51;3.22;;;2.60;;
11328;SDS011;5719;42.714;23.732;2022-12-20T11:01:19;3.08;;;2.38;;
11328;SDS011;5719;42.714;23.732;2022-12-20T11:03:59;2.80;;;2.20;;
11328;SDS011;5719;42.714;23.732;2022-12-20T11:06:29;2.67;;;2.20;;
11328;SDS011;5719;42.714;23.732;2022-12-20T11:11:56;2.45;;;2.25;;
11328;SDS011;5719;42.714;23.732;2022-12-20T11:14:24;2.45;;;2.25;;
11328;SDS011;5719;42.714;23.732;2022-12-20T11:16:52;3.15;;;1.77;;
11328;SDS011;5719;42.714;23.732;2022-12-20T11:22:18;3.30;;;1.80;;
11328;SDS011;5719;42.714;23.732;2022-12-20T11:25:02;1.67;;;1.45;;
11328;SDS011;5719;42.714;23.732;2022-12-20T11:27:43;2.28;;;1.58;;
11328;SDS011;5719;42.714;23.732;2022-12-20T11:30:20;2.22;;;1.80;;
11328;SDS011;5719;42.714;23.732;2022-12-20T11:32:53;2.20;;;1.67;;
11328;SDS011;5719;42.714;23.732;2022-12-20T11:35:31;1.42;;;1.25;;
11328;SDS011;5719;42.714;23.732;2022-12-20T11:38:10;1.65;;;1.55;;
11328;SDS011;5719;42.714;23.732;2022-12-20T11:40:46;1.52;;;1.20;;
11328;SDS011;5719;42.714;23.732;2022-12-20T11:43:24;1.27;;;0.90;;
11328;SDS011;5719;42.714;23.732;2022-12-20T11:46:04;1.30;;;1.20;;
11328;SDS011;5719;42.714;23.732;2022-12-20T11:48:49;4.47;;;1.80;;
11328;SDS011;5719;42.714;23.732;2022-12-20T11:51:32;1.40;;;1.30;;
11328;SDS011;5719;42.714;23.732;2022-12-20T11:54:03;1.50;;;1.40;;
11328;SDS011;5719;42.714;23.732;2022-12-20T11:56:36;1.50;;;1.20;;
11328;SDS011;5719;42.714;23.732;2022-12-20T11:59:06;1.67;;;1.58;;
11328;SDS011;5719;42.714;23.732;2022-12-20T12:01:41;1.50;;;1.40;;
11328;SDS011;5719;42.714;23.732;2022-12-20T12:04:13;1.67;;;1.58;;
11328;SDS011;5719;42.714;23.732;2022-12-20T12:06:47;2.97;;;1.77;;
11328;SDS011;5719;42.714;23.732;2022-12-20T12:09:21;1.60;;;1.50;;
11328;SDS011;5719;42.714;23.732;2022-12-20T12:11:54;3.35;;;1.60;;
11328;SDS011;5719;42.714;23.732;2022-12-20T12:14:29;2.10;;;1.65;;
11328;SDS011;5719;42.714;23.732;2022-12-20T12:17:06;2.08;;;1.77;;
11328;SDS011;5719;42.714;23.732;2022-12-20T12:19:39;4.55;;;1.80;;
11328;SDS011;5719;42.714;23.732;2022-12-20T12:22:13;3.50;;;1.85;;
11328;SDS011;5719;42.714;23.732;2022-12-20T12:24:47;3.28;;;2.20;;
11328;SDS011;5719;42.714;23.732;2022-12-20T12:27:19;2.58;;;2.30;;
11328;SDS011;5719;42.714;23.732;2022-12-20T12:29:49;2.65;;;1.73;;
11328;SDS011;5719;42.714;23.732;2022-12-20T12:32:19;4.10;;;2.22;;
11328;SDS011;5719;42.714;23.732;2022-12-20T12:34:56;3.72;;;2.35;;
11328;SDS011;5719;42.714;23.732;2022-12-20T12:37:36;3.13;;;2.50;;
11328;SDS011;5719;42.714;23.732;2022-12-20T12:43:46;2.55;;;2.17;;
11328;SDS011;5719;42.714;23.732;2022-12-20T12:46:17;2.55;;;2.35;;
11328;SDS011;5719;42.714;23.732;2022-12-20T12:48:50;3.20;;;2.25;;
11328;SDS011;5719;42.714;23.732;2022-12-20T12:51:22;3.08;;;2.40;;
11328;SDS011;5719;42.714;23.732;2022-12-20T12:54:02;2.63;;;2.07;;
11328;SDS011;5719;42.714;23.732;2022-12-20T12:56:40;3.15;;;2.15;;
11328;SDS011;5719;42.714;23.732;2022-12-20T12:59:24;2.92;;;2.30;;
11328;SDS011;5719;42.714;23.732;2022-12-20T13:05:30;7.63;;;5.20;;
11328;SDS011;5719;42.714;23.732;2022-12-20T13:08:00;7.95;;;5.53;;
11328;SDS011;5719;42.714;23.732;2022-12-20T13:13:23;12.82;;;5.90;;
11328;SDS011;5719;42.714;23.732;2022-12-20T13:15:51;10.65;;;6.25;;
11328;SDS011;5719;42.714;23.732;2022-12-20T13:18:37;10.93;;;6.00;;
11328;SDS011;5719;42.714;23.732;2022-12-20T13:27:16;12.63;;;7.45;;
11328;SDS011;5719;42.714;23.732;2022-12-20T13:33:14;11.07;;;6.78;;
11328;SDS011;5719;42.714;23.732;2022-12-20T13:35:57;12.48;;;6.97;;
11328;SDS011;5719;42.714;23.732;2022-12-20T13:38:55;19.63;;;7.53;;
11328;SDS011;5719;42.714;23.732;2022-12-20T13:41:29;11.30;;;6.70;;
11328;SDS011;5719;42.714;23.732;2022-12-20T13:44:02;11.18;;;7.32;;
11328;SDS011;5719;42.714;23.732;2022-12-20T13:46:45;11.90;;;6.25;;
11328;SDS011;5719;42.714;23.732;2022-12-20T13:49:17;14.18;;;6.43;;
11328;SDS011;5719;42.714;23.732;2022-12-20T13:51:49;10.48;;;6.43;;
11328;SDS011;5719;42.714;23.732;2022-12-20T13:54:38;12.45;;;6.57;;
11328;SDS011;5719;42.714;23.732;2022-12-20T13:57:06;10.05;;;6.18;;
11328;SDS011;5719;42.714;23.732;2022-12-20T13:59:36;12.70;;;6.75;;
11328;SDS011;5719;42.714;23.732;2022-12-20T14:02:08;12.48;;;6.45;;
11328;SDS011;5719;42.714;23.732;2022-12-20T14:04:43;11.93;;;6.63;;
11328;SDS011;5719;42.714;23.732;2022-12-20T14:07:16;11.73;;;7.05;;
11328;SDS011;5719;42.714;23.732;2022-12-20T14:09:44;14.15;;;7.00;;
11328;SDS011;5719;42.714;23.732;2022-12-20T14:12:13;10.15;;;6.53;;
11328;SDS011;5719;42.714;23.732;2022-12-20T14:14:43;14.55;;;6.88;;
11328;SDS011;5719;42.714;23.732;2022-12-20T14:17:21;13.23;;;6.95;;
11328;SDS011;5719;42.714;23.732;2022-12-20T14:20:03;11.38;;;7.03;;
11328;SDS011;5719;42.714;23.732;2022-12-20T14:22:31;11.20;;;6.65;;
11328;SDS011;5719;42.714;23.732;2022-12-20T14:25:01;11.50;;;7.18;;
11328;SDS011;5719;42.714;23.732;2022-12-20T14:27:32;13.40;;;7.13;;
11328;SDS011;5719;42.714;23.732;2022-12-20T14:30:04;12.70;;;7.32;;
11328;SDS011;5719;42.714;23.732;2022-12-20T14:32:32;14.27;;;8.18;;
11328;SDS011;5719;42.714;23.732;2022-12-20T14:34:59;13.80;;;7.50;;
11328;SDS011;5719;42.714;23.732;2022-12-20T14:37:27;13.52;;;7.60;;
11328;SDS011;5719;42.714;23.732;2022-12-20T14:39:57;12.07;;;6.68;;
11328;SDS011;5719;42.714;23.732;2022-12-20T14:42:27;12.07;;;7.32;;
11328;SDS011;5719;42.714;23.732;2022-12-20T14:45:01;13.18;;;7.78;;
11328;SDS011;5719;42.714;23.732;2022-12-20T14:47:46;12.52;;;7.25;;
11328;SDS011;5719;42.714;23.732;2022-12-20T14:50:16;12.73;;;7.88;;
11328;SDS011;5719;42.714;23.732;2022-12-20T14:52:45;10.05;;;6.13;;
11328;SDS011;5719;42.714;23.732;2022-12-20T14:55:13;11.68;;;6.75;;
11328;SDS011;5719;42.714;23.732;2022-12-20T14:57:43;12.35;;;7.20;;
11328;SDS011;5719;42.714;23.732;2022-12-20T15:00:19;12.32;;;7.63;;
11328;SDS011;5719;42.714;23.732;2022-12-20T15:02:51;14.50;;;8.70;;
11328;SDS011;5719;42.714;23.732;2022-12-20T15:08:17;14.13;;;7.93;;
11328;SDS011;5719;42.714;23.732;2022-12-20T15:10:56;11.27;;;7.00;;
11328;SDS011;5719;42.714;23.732;2022-12-20T15:13:26;13.75;;;7.15;;
11328;SDS011;5719;42.714;23.732;2022-12-20T15:15:58;12.02;;;6.68;;
11328;SDS011;5719;42.714;23.732;2022-12-20T15:18:26;11.05;;;6.57;;
11328;SDS011;5719;42.714;23.732;2022-12-20T15:20:58;12.60;;;6.25;;
11328;SDS011;5719;42.714;23.732;2022-12-20T15:23:28;11.82;;;6.88;;